Weather observations for the past three days for
Seymour Johnson Air Force Base
Imperial (Metric)
Date Time (edt) Wind (mph) Vis. (mi.) Weather Sky Cond. Temperature (ºF) Relative Humidity Wind Chill (°F) Heat Index (°F) Pressure Precipitation (in)
Air Dwpt 6 hour altimeter (in) sea level (mb) 1 hr 3 hr 6 hr
Max. Min.
02 14:55 NE 10 3.00 Light Rain Fog/Mist SCT005 BKN010 OVC015 53.6 51.8 94% 29.88 0.0
02 13:55 NE 12 G 17 3.00 Light Rain Fog/Mist SCT008 BKN010 BKN015 OVC050 53.6 51.8 94% 29.9 0.0
02 12:55 NE 12 G 17 3.00 Light Rain BKN007 BKN015 OVC050 53.6 51.8 94% 29.9 0.0
02 11:55 N 7 3.00 Light Rain BKN007 BKN015 OVC050 55.4 53.6 94% 29.92 0.0
02 10:55 N 7 3.00 Light Rain BKN008 BKN015 OVC050 55.4 53.6 94% 29.91 0.0
02 09:55 NE 7 5.00 Light Rain BKN009 OVC050 53.6 53.6 100% 29.89 0.0
02 08:55 N 7 10.00 Overcast BKN050 OVC080 53.6 51.8 94% 29.87 0.0
02 07:55 NW 7 10.00 Mostly Cloudy BKN060 0 0 0% 0 0.0
02 06:55 NW 5 6.00 Overcast with Haze BKN042 OVC050 0 0 0% 0 0.0
02 05:55 Calm 5.00 Mostly Cloudy with Haze BKN023 BKN028 0 0 0% 0 0.0
02 04:55 N 5 10.00 Overcast OVC018 0 0 0% 0 0.0
02 03:55 Calm 10.00 Overcast BKN018 BKN029 BKN041 OVC060 0 0 0% 0 0.0
02 02:55 Calm 10.00 Mostly Cloudy BKN130 0 0 0% 0 0.0
02 01:55 Calm 10.00 Overcast FEW023 BKN036 BKN050 OVC130 0 0 0% 0 0.0
02 00:55 Calm 10.00 Overcast OVC140 0 0 0% 0 0.0
01 23:55 Calm 10.00 Overcast OVC150 0 0 0% 0 0.0
01 22:55 Calm 10.00 Mostly Cloudy FEW047 BKN160 0 0 0% 0 0.0
01 21:55 E 3 10.00 Overcast OVC160 0 0 0% 0 0.0
01 20:55 E 3 10.00 Mostly Cloudy BKN170 BKN210 0 0 0% 0 0.0
01 19:55 E 5 10.00 Overcast FEW060 OVC070 0 0 0% 0 0.0
01 18:55 NE 5 10.00 Mostly Cloudy SCT065 BKN080 0 0 0% 0 0.0
01 17:55 NE 3 10.00 Overcast BKN060 OVC070 0 0 0% 0 0.0
01 16:58 NE 3 10.00 Mostly Cloudy SCT075 BKN100 57.2 48.2 72% 29.95 0.0
01 15:58 NE 6 10.00 Overcast BKN060 OVC100 57.2 48.2 72% 29.97 0.0
01 15:12 NE 6 10.00 Overcast BKN060 OVC100 57.2 46.4 67% 29.98 0.0
01 13:59 Vrbl 6 10.00 Mostly Cloudy FEW028 SCT060 BKN075 BKN090 BKN200 57.2 48.2 72% 29.99 0.0
01 12:56 E 9 10.00 Overcast BKN060 OVC100 55.4 42.8 63% 30 0.0
01 11:55 E 7 10.00 Overcast BKN055 OVC075 53.6 42.8 67% 30.01 0.0
01 10:55 E 6 6.00 Light Rain BKN060 BKN110 BKN210 53.6 42.8 67% 30.01 0.0
01 09:55 N 6 6.00 Light Rain SCT032 OVC060 53.6 39.2 58% 30 0.0
01 08:59 NE 14 10.00 Overcast OVC055 53.6 39.2 58% 29.99 0.0
01 07:55 NE 8 10.00 Overcast FEW022 BKN060 OVC080 53.6 39.2 58% 29.99 0.0
01 06:55 NE 8 10.00 Mostly Cloudy BKN065 BKN080 53.6 39.2 58% 29.99 0.0
01 05:55 NE 9 10.00 Overcast OVC065 53.6 41 63% 29.97 0.0
01 04:55 NE 12 10.00 Overcast OVC065 55.4 42.8 63% 29.96 0.0
01 03:55 NE 10 10.00 Overcast BKN070 OVC085 55.4 44.6 67% 29.94 0.0
01 02:55 N 10 10.00 Mostly Cloudy BKN070 BKN095 55.4 46.4 72% 29.94 0.0
01 01:55 N 8 10.00 A Few Clouds FEW070 57.2 50 77% 29.93 0.0
01 00:55 N 7 10.00 Fair CLR 53.6 53.6 100% 29.91 0.0
30 23:55 NW 8 10.00 A Few Clouds FEW055 53.6 53.6 100% 29.89 0.0
30 22:55 Calm 7.00 Fair CLR 55.4 55.4 100% 29.87 0.0
30 21:55 Calm 10.00 Fair CLR 55.4 55.4 100% 29.87 0.0
30 20:57 Calm 10.00 Partly Cloudy SCT250 59 55.4 88% 29.85 0.0
30 17:58 Calm 10.00 Mostly Cloudy SCT060 BKN075 BKN230 69.8 51.8 53% 29.8 0.0
30 17:06 N 5 10.00 Mostly Cloudy BKN055 69.8 53.6 57% 29.81 0.0
30 15:55 Vrbl 5 10.00 Mostly Cloudy BKN047 BKN220 71.6 51.8 50% 29.81 0.0
30 14:55 Vrbl 7 10.00 Partly Cloudy FEW060 SCT120 SCT210 68 53.6 60% 29.8 0.0
30 13:56 N 8 10.00 Mostly Cloudy SCT120 BKN150 66.2 55.4 68% 29.82 0.0
30 12:59 N 7 10.00 Mostly Cloudy FEW110 SCT150 BKN190 62.6 59 88% 29.83 0.0
30 11:55 N 6 10.00 Overcast SCT070 BKN085 OVC130 62.6 57.2 83% 29.86 0.0
30 10:57 W 9 10.00 Overcast BKN080 OVC180 64.4 55.4 73% 29.81 0.0
30 09:57 N 6 10.00 Overcast FEW070 OVC180 62.6 57.2 83% 29.77 0.0
30 08:55 NW 6 10.00 Overcast FEW080 OVC190 60.8 57.2 88% 29.79 0.0
30 07:55 NW 5 10.00 Overcast FEW070 OVC200 60.8 59 94% 29.79 0.0
30 06:55 W 5 10.00 Mostly Cloudy SCT030 BKN080 60.8 60.8 100% 29.78 0.0
30 05:59 W 5 9.00 Mostly Cloudy BKN080 60.8 60.8 100% 29.78 0.0
30 04:55 NW 3 1.88 Fog/Mist OVC003 62.6 62.6 100% 29.78 0.0
30 03:55 Calm 6.00 Overcast with Haze OVC004 60.8 60.8 100% 29.78 0.0
30 02:55 Calm 1.25 Fog/Mist BKN006 BKN100 BKN200 64.4 62.6 94% 29.81 0.0
30 01:58 S 6 10.00 Thunderstorm BKN012CB OVC090 68 64.4 88% 29.78 0.0
30 00:55 S 3 10.00 Thunderstorm in Vicinity OVC080 68 64.4 88% 29.78 0.0
29 23:55 Calm 10.00 Fair CLR 68 64.4 88% 29.78 0.0
29 22:55 S 6 10.00 Fair CLR 68 64.4 88% 29.81 0.0
29 21:58 S 5 10.00 Mostly Cloudy SCT090 BKN110 68 64.4 88% 29.81 0.0
29 20:59 SE 3 10.00 Fair CLR 66.2 62.6 88% 29.8 0.0
29 19:59 S 5 10.00 Mostly Cloudy FEW050 BKN250 71.6 62.6 73% 29.77 0.0
29 18:57 SW 6 10.00 Mostly Cloudy SCT040 BKN230 75.2 62.6 65% 77 29.78 0.0
29 17:58 S 6 10.00 Mostly Cloudy SCT033 BKN047 BKN240 75.2 60.8 61% 77 29.79 0.0
29 16:59 SW 6 10.00 Mostly Cloudy BKN030 BKN130 73.4 62.6 69% 29.8 0.0
29 15:56 SW 9 10.00 Mostly Cloudy SCT028 BKN040 BKN048 73.4 62.6 69% 29.83 0.0
Date Time (edt) Wind (mph) Vis. (mi.) Weather Sky Cond. Air Dwpt Max. Min. Relative Humidity Wind Chill (°F) Heat Index (°F) altimeter (in) sea level (mb) 1 hr 3 hr 6 hr
6 hour
Temperature (ºF) Pressure Precipitation (in)